Country Lakes, Florida
Current Conditions -  °F | °C
As of 10:53 PM on Friday 28 Nov 2014 (Local Time) from KTMB Reporting Station
Few Clouds Few Clouds  
Wind Chill: 57°   Ceiling: Unl
Heat Index: 57°   Visibility: 10mi
Dew Point: 50°   Wind: 15mph
Humidity: 77%   Direction: 360°N
Pressure: 30.2"   Gusts: NA
Location:  25.6007°N, 80.4075°W
Report Text: KTMB 290353Z 36013KT 10SM FEW046 14/10 A3020 RMK AO2 SLP226 T01390100
Loading
Personal Weather Stations






























Interactive Weather Map New forecast layout! Learn more

10-Day Weather Forecast

Advertisements
Track Severe Weather on mobile